Time;durP1;ratioP1;P1;durP2;ratioP2;P2;SDS_P1;SDS_P2;PMS_P1;PMS_P2;Temp;Humidity;BMP_temperature;BMP_pressure;BME280_temperature;BME280_humidity;BME280_pressure;Samples;Min_cycle;Max_cycle;Signal;HPM_P1;HPM_P2
2022/01/05 00:00:10;;;;;;;;;;;5.00;85.50;;;;;;5036634;28;19920;-85
2022/01/05 00:02:39;;;;;;;;;;;5.10;85.70;;;;;;5027770;28;20647;-86
2022/01/05 00:05:05;;;;;;;;;;;4.90;84.70;;;;;;5037598;28;19971;-85
2022/01/05 00:07:31;;;;;;;;;;;5.00;85.50;;;;;;5025920;28;20288;-85
2022/01/05 00:09:56;;;;;;;;;;;5.00;85.10;;;;;;5037616;28;19932;-85
2022/01/05 00:12:24;;;;;;;;;;;4.90;85.40;;;;;;5032771;28;19936;-86
2022/01/05 00:14:49;;;;;;;;;;;5.00;85.60;;;;;;5034786;28;19913;-85
2022/01/05 00:17:15;;;;;;;;;;;5.10;85.60;;;;;;5013528;28;20641;-86
2022/01/05 00:19:40;;;;;;;;;;;5.10;86.00;;;;;;5026561;28;19913;-86
2022/01/05 00:22:06;;;;;;;;;;;5.10;85.00;;;;;;5030653;28;19917;-85
2022/01/05 00:24:32;;;;;;;;;;;5.00;85.20;;;;;;5030804;28;19910;-85
2022/01/05 00:26:57;;;;;;;;;;;5.00;85.50;;;;;;5036774;28;20396;-85
2022/01/05 00:29:25;;;;;;;;;;;5.00;86.50;;;;;;5034734;28;19909;-85
2022/01/05 00:31:53;;;;;;;;;;;5.10;86.20;;;;;;5018886;28;19917;-89
2022/01/05 00:34:19;;;;;;;;;;;5.10;85.90;;;;;;5021183;28;19928;-87
2022/01/05 00:36:45;;;;;;;;;;;5.10;86.00;;;;;;5038372;28;20029;-86
2022/01/05 00:39:10;;;;;;;;;;;5.20;86.40;;;;;;5035732;28;19909;-85
2022/01/05 00:41:35;;;;;;;;;;;5.10;86.00;;;;;;5026754;28;20106;-86
2022/01/05 00:44:01;;;;;;;;;;;5.10;86.40;;;;;;5004688;28;19913;-85
2022/01/05 00:46:27;;;;;;;;;;;5.20;86.00;;;;;;5040272;28;19945;-87
2022/01/05 00:48:52;;;;;;;;;;;5.20;86.10;;;;;;5036361;28;19920;-85
2022/01/05 00:51:18;;;;;;;;;;;5.20;86.30;;;;;;5038349;28;19920;-87
2022/01/05 00:53:44;;;;;;;;;;;5.10;86.30;;;;;;5041288;28;19920;-86
2022/01/05 00:56:09;;;;;;;;;;;5.30;85.80;;;;;;5026097;28;20284;-87
2022/01/05 00:58:35;;;;;;;;;;;5.20;86.00;;;;;;5025811;28;20293;-87
2022/01/05 01:01:01;;;;;;;;;;;5.10;85.90;;;;;;5033320;28;19913;-88
2022/01/05 01:03:29;;;;;;;;;;;5.20;86.10;;;;;;5036592;28;19917;-90
2022/01/05 01:05:56;;;;;;;;;;;5.10;86.40;;;;;;5035446;28;19905;-91
2022/01/05 01:08:22;;;;;;;;;;;5.10;86.20;;;;;;5038638;28;19920;-83
2022/01/05 01:10:47;;;;;;;;;;;5.10;87.10;;;;;;5046837;28;19917;-82
2022/01/05 01:13:17;;;;;;;;;;;5.10;87.00;;;;;;5035847;28;19939;-82
2022/01/05 01:15:52;;;;;;;;;;;5.10;86.80;;;;;;5026621;28;19913;-86
2022/01/05 01:18:18;;;;;;;;;;;5.10;86.70;;;;;;5026525;28;19957;-86
2022/01/05 01:20:44;;;;;;;;;;;5.20;86.90;;;;;;5040042;28;19913;-86
2022/01/05 01:23:10;;;;;;;;;;;5.30;86.80;;;;;;5025776;28;19923;-85
2022/01/05 01:25:35;;;;;;;;;;;5.20;86.50;;;;;;5039127;28;20388;-86
2022/01/05 01:28:02;;;;;;;;;;;5.30;86.60;;;;;;5038626;28;20004;-86
2022/01/05 01:30:30;;;;;;;;;;;5.30;86.50;;;;;;5034532;28;20543;-85
2022/01/05 01:32:56;;;;;;;;;;;5.20;86.40;;;;;;5030347;28;19931;-87
2022/01/05 01:35:21;;;;;;;;;;;5.30;86.00;;;;;;5036559;28;20462;-86
2022/01/05 01:37:47;;;;;;;;;;;5.30;86.20;;;;;;5039045;28;19924;-86
2022/01/05 01:40:13;;;;;;;;;;;5.20;86.20;;;;;;5020906;28;19909;-89
2022/01/05 01:42:38;;;;;;;;;;;5.30;86.00;;;;;;5039343;28;20348;-87
2022/01/05 01:45:04;;;;;;;;;;;5.30;85.50;;;;;;5037047;28;19921;-84
2022/01/05 01:47:30;;;;;;;;;;;5.20;85.40;;;;;;5041627;28;19913;-87
2022/01/05 01:49:55;;;;;;;;;;;5.20;85.30;;;;;;5025057;28;20369;-87
2022/01/05 01:52:21;;;;;;;;;;;5.10;85.40;;;;;;5037506;28;20004;-86
2022/01/05 01:54:51;;;;;;;;;;;5.10;85.10;;;;;;5041846;28;19917;-84
2022/01/05 01:57:20;;;;;;;;;;;5.10;86.10;;;;;;5032219;28;20339;-85
2022/01/05 01:59:47;;;;;;;;;;;5.10;86.30;;;;;;5041337;28;19917;-85
2022/01/05 02:02:14;;;;;;;;;;;5.10;86.20;;;;;;5036523;28;19939;-85
2022/01/05 02:04:41;;;;;;;;;;;5.10;86.00;;;;;;5034985;28;19913;-85
2022/01/05 02:07:07;;;;;;;;;;;5.00;85.80;;;;;;5033795;28;19913;-85
2022/01/05 02:09:32;;;;;;;;;;;5.00;86.40;;;;;;5035066;28;19935;-85
2022/01/05 02:11:58;;;;;;;;;;;5.00;86.30;;;;;;5033198;28;19920;-85
2022/01/05 02:14:23;;;;;;;;;;;5.00;86.50;;;;;;5036486;28;19959;-85
2022/01/05 02:16:52;;;;;;;;;;;4.90;86.40;;;;;;5045228;28;19917;-85
2022/01/05 02:19:18;;;;;;;;;;;4.80;86.10;;;;;;5048614;28;20000;-85
2022/01/05 02:21:47;;;;;;;;;;;4.70;86.60;;;;;;5025514;28;19913;-85
2022/01/05 02:24:12;;;;;;;;;;;4.80;87.00;;;;;;5037301;28;19919;-85
2022/01/05 02:26:41;;;;;;;;;;;4.80;86.90;;;;;;5020226;28;20004;-89
2022/01/05 02:29:07;;;;;;;;;;;4.80;86.70;;;;;;5019543;28;19976;-86
2022/01/05 02:31:39;;;;;;;;;;;4.90;87.10;;;;;;5021854;28;19948;-88
2022/01/05 02:34:04;;;;;;;;;;;4.90;87.00;;;;;;5033901;28;19960;-86
2022/01/05 02:36:30;;;;;;;;;;;4.80;87.00;;;;;;5026415;28;19913;-85
2022/01/05 02:38:56;;;;;;;;;;;4.90;87.20;;;;;;5028982;28;19913;-88
2022/01/05 02:41:22;;;;;;;;;;;4.90;86.70;;;;;;5020729;28;19913;-86
2022/01/05 02:43:47;;;;;;;;;;;4.90;86.90;;;;;;5033313;28;20280;-86
2022/01/05 02:46:14;;;;;;;;;;;4.90;86.70;;;;;;5050555;28;19921;-86
2022/01/05 02:48:40;;;;;;;;;;;4.90;86.70;;;;;;5034465;28;21495;-86
2022/01/05 02:51:06;;;;;;;;;;;5.00;86.20;;;;;;5032082;28;19967;-87
2022/01/05 02:53:32;;;;;;;;;;;4.90;86.00;;;;;;5039826;28;19917;-86
2022/01/05 02:55:58;;;;;;;;;;;4.90;86.40;;;;;;5025285;28;19913;-86
2022/01/05 02:58:23;;;;;;;;;;;4.80;86.50;;;;;;5038299;28;19921;-86
2022/01/05 03:00:49;;;;;;;;;;;4.60;86.10;;;;;;5019118;28;19944;-86
2022/01/05 03:03:15;;;;;;;;;;;4.70;86.90;;;;;;5029627;28;19939;-87
2022/01/05 03:05:41;;;;;;;;;;;4.70;86.70;;;;;;5023342;28;19956;-86
2022/01/05 03:08:06;;;;;;;;;;;4.60;86.10;;;;;;5032425;28;19924;-87
2022/01/05 03:10:32;;;;;;;;;;;4.60;86.20;;;;;;5039065;28;19910;-85
2022/01/05 03:12:57;;;;;;;;;;;4.70;86.50;;;;;;5025704;28;19967;-85
2022/01/05 03:15:22;;;;;;;;;;;4.60;86.20;;;;;;5027178;28;19913;-85
2022/01/05 03:17:48;;;;;;;;;;;4.70;86.70;;;;;;5026088;28;19959;-90
2022/01/05 03:20:14;;;;;;;;;;;4.80;86.40;;;;;;5034659;28;20270;-85
2022/01/05 03:22:40;;;;;;;;;;;4.80;86.10;;;;;;5034235;28;19913;-86
2022/01/05 03:25:06;;;;;;;;;;;4.80;85.40;;;;;;5039684;28;20013;-87
2022/01/05 03:27:31;;;;;;;;;;;4.60;86.30;;;;;;5040486;28;19910;-86
2022/01/05 03:29:57;;;;;;;;;;;4.60;85.90;;;;;;5033346;28;20397;-89
2022/01/05 03:32:25;;;;;;;;;;;4.60;86.40;;;;;;5041600;28;19955;-90
2022/01/05 03:34:51;;;;;;;;;;;4.60;85.70;;;;;;5040107;28;19913;-85
2022/01/05 03:37:17;;;;;;;;;;;4.60;85.10;;;;;;5041648;28;19925;-88
2022/01/05 03:39:42;;;;;;;;;;;4.60;86.00;;;;;;5030539;28;19916;-86
2022/01/05 03:42:08;;;;;;;;;;;4.60;85.40;;;;;;5034619;28;19936;-87
2022/01/05 03:44:34;;;;;;;;;;;4.60;85.60;;;;;;5026671;28;19944;-86
2022/01/05 03:47:00;;;;;;;;;;;4.50;85.80;;;;;;5026499;28;19909;-87
2022/01/05 03:49:25;;;;;;;;;;;4.50;85.90;;;;;;5030728;28;19913;-87
2022/01/05 03:51:51;;;;;;;;;;;4.50;86.20;;;;;;5024829;28;20100;-89
2022/01/05 03:54:16;;;;;;;;;;;4.40;85.90;;;;;;5029945;28;20499;-86
2022/01/05 03:56:42;;;;;;;;;;;4.40;85.90;;;;;;5029734;28;19913;-87
2022/01/05 03:59:07;;;;;;;;;;;4.40;86.20;;;;;;5023000;28;19917;-88
2022/01/05 04:01:33;;;;;;;;;;;4.40;86.30;;;;;;5029986;28;19989;-86
2022/01/05 04:03:58;;;;;;;;;;;4.40;86.20;;;;;;5026502;28;19909;-88
2022/01/05 04:06:24;;;;;;;;;;;4.30;85.60;;;;;;5023893;28;19913;-87
2022/01/05 04:08:49;;;;;;;;;;;4.30;85.70;;;;;;5030991;28;19913;-86
2022/01/05 04:11:15;;;;;;;;;;;4.20;85.80;;;;;;5039003;28;19936;-86
2022/01/05 04:13:40;;;;;;;;;;;4.20;86.10;;;;;;5025451;28;20008;-87
2022/01/05 04:16:06;;;;;;;;;;;4.10;85.90;;;;;;5027563;28;20004;-90
2022/01/05 04:18:31;;;;;;;;;;;4.00;86.10;;;;;;5026658;28;19917;-90
2022/01/05 04:20:57;;;;;;;;;;;4.10;85.70;;;;;;5025628;28;19999;-87
2022/01/05 04:23:22;;;;;;;;;;;4.10;85.90;;;;;;5024426;28;19960;-88
2022/01/05 04:25:49;;;;;;;;;;;4.00;85.10;;;;;;5032819;28;20030;-87
2022/01/05 04:28:14;;;;;;;;;;;3.90;85.00;;;;;;5026116;28;19921;-88
2022/01/05 04:30:40;;;;;;;;;;;4.00;84.50;;;;;;5025385;28;19948;-90
2022/01/05 04:33:06;;;;;;;;;;;3.80;85.10;;;;;;5027486;28;19955;-87
2022/01/05 04:35:31;;;;;;;;;;;3.80;85.20;;;;;;5030083;28;19913;-86
2022/01/05 04:37:57;;;;;;;;;;;3.80;84.90;;;;;;5037297;28;19935;-88
2022/01/05 04:40:22;;;;;;;;;;;3.70;84.80;;;;;;5038980;28;19928;-87
2022/01/05 04:42:48;;;;;;;;;;;3.60;84.80;;;;;;5033412;28;19979;-87
2022/01/05 04:47:55;;;;;;;;;;;3.70;84.30;;;;;;5017649;28;19934;-86
2022/01/05 04:50:36;;;;;;;;;;;3.60;83.90;;;;;;5017228;28;19917;-86
2022/01/05 04:53:11;;;;;;;;;;;3.60;84.80;;;;;;5015472;28;19913;-84
2022/01/05 04:55:40;;;;;;;;;;;3.60;84.10;;;;;;5025013;28;20381;-87
2022/01/05 04:58:08;;;;;;;;;;;3.60;84.00;;;;;;5013921;28;20293;-86
2022/01/05 05:00:36;;;;;;;;;;;3.50;84.50;;;;;;5012565;28;19919;-86
2022/01/05 05:03:13;;;;;;;;;;;3.50;84.40;;;;;;5001988;28;20008;-86
2022/01/05 05:05:39;;;;;;;;;;;3.50;84.10;;;;;;5002663;28;19913;-86
2022/01/05 05:08:07;;;;;;;;;;;3.40;84.60;;;;;;5008047;28;20374;-86
2022/01/05 05:10:32;;;;;;;;;;;3.30;84.30;;;;;;5006279;28;20429;-87
2022/01/05 05:12:58;;;;;;;;;;;3.30;84.80;;;;;;5002297;28;19941;-86
2022/01/05 05:15:23;;;;;;;;;;;3.30;84.50;;;;;;4999170;28;19909;-86
2022/01/05 05:17:51;;;;;;;;;;;3.20;84.60;;;;;;5003931;28;19971;-83
2022/01/05 05:20:17;;;;;;;;;;;3.20;84.30;;;;;;5010750;28;19920;-85
2022/01/05 05:23:02;;;;;;;;;;;3.20;84.30;;;;;;5008348;28;19917;-86
2022/01/05 05:25:28;;;;;;;;;;;3.10;83.90;;;;;;5019319;28;19914;-86
2022/01/05 05:28:13;;;;;;;;;;;3.20;83.60;;;;;;5033172;28;19919;-91
2022/01/05 05:30:39;;;;;;;;;;;3.10;83.60;;;;;;5012475;28;20304;-85
2022/01/05 05:33:13;;;;;;;;;;;3.20;83.60;;;;;;5016503;28;19913;-85
2022/01/05 05:36:04;;;;;;;;;;;3.10;84.00;;;;;;5026053;28;19980;-86
2022/01/05 05:38:36;;;;;;;;;;;3.20;83.50;;;;;;5029643;28;20314;-85
2022/01/05 05:41:01;;;;;;;;;;;3.00;83.40;;;;;;5013570;28;19921;-84
2022/01/05 05:43:27;;;;;;;;;;;3.00;83.70;;;;;;5011746;28;19913;-84
2022/01/05 05:45:55;;;;;;;;;;;3.00;83.80;;;;;;5021479;28;19913;-85
2022/01/05 05:48:21;;;;;;;;;;;3.00;84.00;;;;;;5024219;28;19917;-85
2022/01/05 05:50:46;;;;;;;;;;;3.00;84.40;;;;;;5022746;28;19971;-85
2022/01/05 05:53:12;;;;;;;;;;;3.00;84.20;;;;;;5020939;28;19919;-84
2022/01/05 05:55:37;;;;;;;;;;;2.90;84.20;;;;;;5019943;28;20297;-84
2022/01/05 05:58:03;;;;;;;;;;;2.90;84.10;;;;;;5037818;28;19917;-83
2022/01/05 06:00:32;;;;;;;;;;;2.90;83.70;;;;;;5028032;28;19953;-83
2022/01/05 06:02:58;;;;;;;;;;;2.90;84.50;;;;;;5017703;28;19971;-84
2022/01/05 06:05:23;;;;;;;;;;;2.80;84.40;;;;;;5032433;28;19921;-84
2022/01/05 06:07:49;;;;;;;;;;;2.80;84.60;;;;;;5017216;28;19917;-84
2022/01/05 06:10:14;;;;;;;;;;;2.80;84.00;;;;;;5019274;28;19999;-83
2022/01/05 06:12:40;;;;;;;;;;;2.70;84.10;;;;;;5007635;28;19913;-84
2022/01/05 06:15:06;;;;;;;;;;;2.80;84.70;;;;;;5017255;28;20428;-86
2022/01/05 06:17:31;;;;;;;;;;;2.80;84.50;;;;;;5005504;28;20440;-85
2022/01/05 06:19:56;;;;;;;;;;;2.80;84.00;;;;;;5019133;28;20312;-85
2022/01/05 06:22:22;;;;;;;;;;;2.80;83.70;;;;;;5039957;28;19932;-86
2022/01/05 06:24:48;;;;;;;;;;;2.80;84.40;;;;;;5017937;28;20385;-84
2022/01/05 06:27:13;;;;;;;;;;;2.90;84.50;;;;;;5012147;28;19952;-84
2022/01/05 06:29:39;;;;;;;;;;;2.80;84.20;;;;;;5002968;28;20305;-83
2022/01/05 06:32:05;;;;;;;;;;;2.90;84.10;;;;;;5005977;28;19921;-84
2022/01/05 06:34:31;;;;;;;;;;;2.80;84.00;;;;;;5000589;28;19913;-83
2022/01/05 06:36:56;;;;;;;;;;;2.70;84.40;;;;;;5033836;28;19920;-84
2022/01/05 06:39:22;;;;;;;;;;;2.70;84.00;;;;;;5018418;28;19913;-84
2022/01/05 06:41:47;;;;;;;;;;;2.80;84.30;;;;;;5007632;28;20543;-82
2022/01/05 06:44:13;;;;;;;;;;;2.80;84.60;;;;;;5021391;28;20004;-85
2022/01/05 06:46:38;;;;;;;;;;;2.80;84.40;;;;;;5035646;28;19921;-84
2022/01/05 06:49:03;;;;;;;;;;;2.90;84.30;;;;;;5021002;28;20012;-84
2022/01/05 06:51:29;;;;;;;;;;;3.00;84.40;;;;;;5021529;28;20332;-83
2022/01/05 06:53:55;;;;;;;;;;;3.00;84.30;;;;;;5005825;28;19980;-84
2022/01/05 06:56:20;;;;;;;;;;;3.10;83.40;;;;;;5025763;28;20026;-84
2022/01/05 06:58:46;;;;;;;;;;;3.20;84.10;;;;;;5012957;28;19924;-82
2022/01/05 07:01:11;;;;;;;;;;;3.20;83.60;;;;;;5013562;28;19997;-84
2022/01/05 07:03:37;;;;;;;;;;;3.20;83.10;;;;;;5028299;28;19913;-83
2022/01/05 07:06:03;;;;;;;;;;;3.30;83.50;;;;;;5036255;28;19914;-84
2022/01/05 07:08:29;;;;;;;;;;;3.20;83.00;;;;;;5022856;28;19917;-86
2022/01/05 07:10:54;;;;;;;;;;;3.20;83.40;;;;;;5039515;28;19917;-84
2022/01/05 07:13:20;;;;;;;;;;;3.20;83.40;;;;;;5007287;28;19913;-84
2022/01/05 07:15:46;;;;;;;;;;;3.20;83.10;;;;;;5012825;28;20016;-84
2022/01/05 07:18:11;;;;;;;;;;;3.30;83.50;;;;;;5023502;28;19947;-84
2022/01/05 07:20:37;;;;;;;;;;;3.30;82.70;;;;;;5025371;28;19913;-82
2022/01/05 07:23:02;;;;;;;;;;;3.30;83.00;;;;;;5005681;28;19920;-83
2022/01/05 07:25:28;;;;;;;;;;;3.30;83.00;;;;;;5026239;28;19936;-82
2022/01/05 07:27:53;;;;;;;;;;;3.30;82.90;;;;;;5006584;28;19967;-81
2022/01/05 07:30:19;;;;;;;;;;;3.20;82.60;;;;;;5006073;28;20012;-83
2022/01/05 07:32:44;;;;;;;;;;;3.10;83.00;;;;;;5027850;28;19913;-83
2022/01/05 07:35:10;;;;;;;;;;;3.10;83.20;;;;;;5029815;28;19985;-83
2022/01/05 07:37:36;;;;;;;;;;;3.10;83.10;;;;;;5008315;28;19924;-82
2022/01/05 07:40:01;;;;;;;;;;;3.10;83.30;;;;;;5005847;28;19920;-82
2022/01/05 07:42:30;;;;;;;;;;;3.10;83.20;;;;;;5010646;28;19913;-83
2022/01/05 07:44:57;;;;;;;;;;;3.20;83.40;;;;;;5012978;28;19913;-84
2022/01/05 07:47:22;;;;;;;;;;;3.20;82.90;;;;;;5012583;28;19917;-85
2022/01/05 07:49:48;;;;;;;;;;;3.20;83.20;;;;;;5011051;28;19916;-83
2022/01/05 07:52:13;;;;;;;;;;;3.20;83.50;;;;;;5031765;28;19936;-84
2022/01/05 07:54:39;;;;;;;;;;;3.30;82.80;;;;;;5005296;28;19924;-83
2022/01/05 07:57:04;;;;;;;;;;;3.30;82.70;;;;;;5007443;28;19914;-84
2022/01/05 07:59:30;;;;;;;;;;;3.30;83.00;;;;;;5002518;28;20606;-82
2022/01/05 08:01:55;;;;;;;;;;;3.40;82.90;;;;;;4997253;28;19964;-84
2022/01/05 08:04:21;;;;;;;;;;;3.40;83.10;;;;;;5023919;28;19984;-82
2022/01/05 08:06:47;;;;;;;;;;;3.50;82.50;;;;;;5006879;28;19952;-82
2022/01/05 08:09:12;;;;;;;;;;;3.40;82.50;;;;;;5014388;28;20401;-85
2022/01/05 08:11:38;;;;;;;;;;;3.40;82.50;;;;;;5006097;28;19924;-84
2022/01/05 08:14:03;;;;;;;;;;;3.50;82.60;;;;;;5005423;28;19976;-83
2022/01/05 08:16:29;;;;;;;;;;;3.50;82.50;;;;;;4998151;28;20027;-83
2022/01/05 08:18:54;;;;;;;;;;;3.50;83.10;;;;;;5033568;28;19921;-84
2022/01/05 08:21:21;;;;;;;;;;;3.60;82.50;;;;;;5011155;28;19971;-84
2022/01/05 08:23:47;;;;;;;;;;;3.60;82.40;;;;;;5033785;28;19914;-82
2022/01/05 08:26:13;;;;;;;;;;;3.70;82.10;;;;;;4998797;28;19972;-82
2022/01/05 08:28:38;;;;;;;;;;;3.70;82.10;;;;;;5003042;28;20405;-82
2022/01/05 08:31:04;;;;;;;;;;;3.80;82.20;;;;;;5003380;28;19917;-83
2022/01/05 08:33:29;;;;;;;;;;;3.70;81.80;;;;;;5017959;28;19914;-83
2022/01/05 08:35:55;;;;;;;;;;;3.70;81.80;;;;;;5023204;28;19917;-82
2022/01/05 08:38:21;;;;;;;;;;;3.80;81.30;;;;;;5011109;28;19917;-82
2022/01/05 08:40:46;;;;;;;;;;;3.90;81.50;;;;;;5022741;28;20287;-83
2022/01/05 08:43:13;;;;;;;;;;;3.90;81.40;;;;;;5024495;28;19939;-83
2022/01/05 08:45:39;;;;;;;;;;;4.00;81.20;;;;;;5021094;28;19996;-85
2022/01/05 08:48:05;;;;;;;;;;;4.00;80.80;;;;;;5013011;28;20304;-83
2022/01/05 08:50:32;;;;;;;;;;;4.00;81.30;;;;;;5009388;28;19912;-84
2022/01/05 08:52:57;;;;;;;;;;;4.00;81.60;;;;;;5013626;28;19959;-82
2022/01/05 08:55:25;;;;;;;;;;;4.00;81.30;;;;;;5029013;28;19914;-83
2022/01/05 08:57:51;;;;;;;;;;;3.90;81.40;;;;;;4995600;28;19989;-82
2022/01/05 09:00:17;;;;;;;;;;;3.90;82.30;;;;;;5016360;28;20028;-82
2022/01/05 09:02:42;;;;;;;;;;;4.00;81.60;;;;;;5019248;28;21596;-83
2022/01/05 09:05:08;;;;;;;;;;;4.00;81.80;;;;;;5005191;28;20266;-82
2022/01/05 09:07:34;;;;;;;;;;;4.10;81.30;;;;;;5000898;28;19913;-82
2022/01/05 09:10:00;;;;;;;;;;;4.10;81.60;;;;;;4999185;28;20288;-82
2022/01/05 09:12:25;;;;;;;;;;;4.10;81.40;;;;;;5017535;28;20433;-85
2022/01/05 09:14:51;;;;;;;;;;;4.10;81.40;;;;;;5004261;28;19932;-83
2022/01/05 09:17:16;;;;;;;;;;;4.10;81.70;;;;;;5002800;28;20048;-83
2022/01/05 09:19:42;;;;;;;;;;;4.10;81.90;;;;;;5026565;28;19921;-83
2022/01/05 09:22:08;;;;;;;;;;;4.20;81.90;;;;;;5006543;28;19913;-85
2022/01/05 09:24:34;;;;;;;;;;;4.20;81.30;;;;;;5015649;28;19917;-83
2022/01/05 09:27:03;;;;;;;;;;;4.20;81.00;;;;;;5025033;28;19956;-85
2022/01/05 09:29:29;;;;;;;;;;;4.30;81.30;;;;;;5008937;28;20381;-84
2022/01/05 09:31:55;;;;;;;;;;;4.20;80.90;;;;;;5010057;28;19935;-86
2022/01/05 09:34:20;;;;;;;;;;;4.10;81.60;;;;;;5012076;28;19913;-83
2022/01/05 09:36:49;;;;;;;;;;;4.10;82.00;;;;;;5016608;28;20263;-83
2022/01/05 09:42:10;;;;;;;;;;;4.10;81.70;;;;;;4946275;28;19915;-83
2022/01/05 09:44:38;;;;;;;;;;;4.10;82.00;;;;;;5014908;28;19922;-84
2022/01/05 09:47:23;;;;;;;;;;;4.20;81.80;;;;;;5017685;28;20104;-84
2022/01/05 09:49:59;;;;;;;;;;;4.20;81.60;;;;;;5015642;28;20106;-85
2022/01/05 09:52:25;;;;;;;;;;;4.20;82.30;;;;;;5018016;28;19909;-84
2022/01/05 09:54:52;;;;;;;;;;;4.20;82.50;;;;;;5031400;28;19928;-84
2022/01/05 09:57:19;;;;;;;;;;;4.30;82.90;;;;;;4997723;28;20001;-84
2022/01/05 09:59:48;;;;;;;;;;;4.40;82.80;;;;;;5012851;28;20001;-85
2022/01/05 10:02:18;;;;;;;;;;;4.40;82.40;;;;;;5017125;28;20353;-85
2022/01/05 10:04:44;;;;;;;;;;;4.50;82.80;;;;;;5016701;28;19964;-84
2022/01/05 10:07:09;;;;;;;;;;;4.30;82.60;;;;;;5021398;28;19952;-85
2022/01/05 10:09:39;;;;;;;;;;;4.30;82.80;;;;;;5019215;28;19949;-84
2022/01/05 10:12:05;;;;;;;;;;;4.30;83.50;;;;;;5032345;28;19956;-83
2022/01/05 10:14:30;;;;;;;;;;;4.30;83.70;;;;;;5011790;28;19914;-83
2022/01/05 10:17:09;;;;;;;;;;;4.30;83.60;;;;;;5018029;28;19994;-83
2022/01/05 10:19:35;;;;;;;;;;;4.30;83.50;;;;;;5028186;28;20431;-80
2022/01/05 10:22:02;;;;;;;;;;;4.20;83.70;;;;;;5039234;28;19964;-83
2022/01/05 10:24:43;;;;;;;;;;;4.20;83.80;;;;;;5029858;28;19924;-82
2022/01/05 10:27:19;;;;;;;;;;;4.30;84.30;;;;;;5018915;28;19917;-81
2022/01/05 10:29:54;;;;;;;;;;;4.20;85.00;;;;;;5017757;28;19955;-83
2022/01/05 10:32:20;;;;;;;;;;;4.20;85.20;;;;;;5020957;28;20329;-81
2022/01/05 10:34:58;;;;;;;;;;;4.10;85.20;;;;;;5037732;28;19910;-83
2022/01/05 10:37:24;;;;;;;;;;;4.10;86.00;;;;;;5022379;28;19975;-81
2022/01/05 10:40:02;;;;;;;;;;;4.10;86.30;;;;;;5019898;28;19918;-82
2022/01/05 10:42:34;;;;;;;;;;;4.00;86.50;;;;;;5023468;28;19909;-81
2022/01/05 10:45:01;;;;;;;;;;;4.00;87.00;;;;;;5021516;28;20012;-83
2022/01/05 10:47:27;;;;;;;;;;;4.00;87.30;;;;;;5018627;22;20021;-87
2022/01/05 10:49:54;;;;;;;;;;;4.10;87.20;;;;;;5004609;28;19910;-86
2022/01/05 10:52:26;;;;;;;;;;;4.20;87.20;;;;;;5000842;28;19925;-86
2022/01/05 10:54:53;;;;;;;;;;;4.20;87.10;;;;;;5004655;28;19976;-86
2022/01/05 10:57:18;;;;;;;;;;;4.20;86.50;;;;;;5008584;28;19921;-87
2022/01/05 10:59:48;;;;;;;;;;;4.30;86.40;;;;;;5020984;28;19913;-86
2022/01/05 11:02:24;;;;;;;;;;;4.20;86.30;;;;;;5016435;28;20271;-87
2022/01/05 11:04:51;;;;;;;;;;;4.20;86.90;;;;;;5002672;28;19910;-88
2022/01/05 11:07:21;;;;;;;;;;;4.20;86.80;;;;;;5006495;28;19914;-88
2022/01/05 11:09:54;;;;;;;;;;;4.10;87.00;;;;;;5005825;28;19914;-87
2022/01/05 11:12:19;;;;;;;;;;;4.10;86.90;;;;;;5001663;28;19977;-85
2022/01/05 11:14:45;;;;;;;;;;;4.10;87.20;;;;;;4998103;28;19945;-88
2022/01/05 11:17:15;;;;;;;;;;;4.10;87.70;;;;;;4997753;28;19918;-89
2022/01/05 11:19:40;;;;;;;;;;;4.10;87.90;;;;;;4997063;28;19910;-85
2022/01/05 11:22:09;;;;;;;;;;;4.10;87.70;;;;;;4996959;28;19973;-86
2022/01/05 11:24:39;;;;;;;;;;;4.10;87.80;;;;;;4994174;28;19957;-85
2022/01/05 11:27:05;;;;;;;;;;;4.00;87.80;;;;;;4993421;28;19918;-84
2022/01/05 11:29:31;;;;;;;;;;;4.10;87.80;;;;;;4993190;28;19909;-84
2022/01/05 11:31:57;;;;;;;;;;;3.90;88.10;;;;;;4992024;28;19921;-84
2022/01/05 11:34:26;;;;;;;;;;;3.80;88.30;;;;;;4992948;28;19909;-84
2022/01/05 11:36:51;;;;;;;;;;;3.80;88.90;;;;;;4993270;28;20001;-85
2022/01/05 11:39:17;;;;;;;;;;;3.80;88.50;;;;;;4992382;28;20020;-84
2022/01/05 11:41:47;;;;;;;;;;;3.80;89.10;;;;;;4993705;28;20382;-84
2022/01/05 11:44:12;;;;;;;;;;;3.80;89.40;;;;;;4994455;28;19977;-84
2022/01/05 11:46:38;;;;;;;;;;;3.80;89.40;;;;;;4992503;28;19921;-85
2022/01/05 11:49:08;;;;;;;;;;;3.80;89.60;;;;;;4990377;28;20036;-85
2022/01/05 11:51:43;;;;;;;;;;;3.90;89.40;;;;;;4993534;28;19972;-85
2022/01/05 11:54:16;;;;;;;;;;;4.00;89.70;;;;;;4975274;28;19940;-84
2022/01/05 11:56:43;;;;;;;;;;;4.00;89.60;;;;;;4993003;28;20017;-84
2022/01/05 11:59:20;;;;;;;;;;;4.00;89.40;;;;;;4991869;28;19920;-84
2022/01/05 12:01:56;;;;;;;;;;;4.00;89.70;;;;;;4986466;28;19914;-85
2022/01/05 12:04:22;;;;;;;;;;;4.00;89.90;;;;;;4991636;28;19920;-83
2022/01/05 12:06:48;;;;;;;;;;;4.00;89.60;;;;;;4992390;28;20336;-84
2022/01/05 12:09:20;;;;;;;;;;;4.10;89.40;;;;;;4991691;28;19914;-82
2022/01/05 12:11:46;;;;;;;;;;;4.10;89.50;;;;;;4993064;28;20392;-84
2022/01/05 12:14:17;;;;;;;;;;;4.10;89.30;;;;;;4991809;28;19917;-83
2022/01/05 12:16:55;;;;;;;;;;;4.10;89.60;;;;;;4992116;28;19928;-85
2022/01/05 12:19:22;;;;;;;;;;;4.20;89.80;;;;;;4989124;28;20338;-82
2022/01/05 12:21:49;;;;;;;;;;;4.20;89.20;;;;;;4992303;28;19921;-83
2022/01/05 12:24:15;;;;;;;;;;;4.30;88.80;;;;;;4990777;28;19984;-81
2022/01/05 12:26:41;;;;;;;;;;;4.30;89.40;;;;;;4991052;28;20437;-80
2022/01/05 12:29:06;;;;;;;;;;;4.30;89.70;;;;;;4991266;28;19988;-83
2022/01/05 12:31:47;;;;;;;;;;;4.30;89.40;;;;;;4991673;28;19929;-83
2022/01/05 12:34:13;;;;;;;;;;;4.40;89.30;;;;;;4991388;28;19913;-85
2022/01/05 12:36:38;;;;;;;;;;;4.40;89.50;;;;;;4992346;28;19921;-83
2022/01/05 12:39:13;;;;;;;;;;;4.40;89.30;;;;;;4990736;28;19926;-83
2022/01/05 12:41:42;;;;;;;;;;;4.30;89.50;;;;;;4990560;28;19996;-82
2022/01/05 12:44:11;;;;;;;;;;;4.30;89.40;;;;;;4988812;28;19914;-84
2022/01/05 12:46:38;;;;;;;;;;;4.30;89.50;;;;;;4981914;28;19941;-83
2022/01/05 12:49:05;;;;;;;;;;;4.30;89.20;;;;;;4989414;28;19918;-83
2022/01/05 12:51:31;;;;;;;;;;;4.40;89.70;;;;;;4992825;28;19926;-82
2022/01/05 12:54:02;;;;;;;;;;;4.40;89.80;;;;;;4991730;28;19953;-83
2022/01/05 12:56:33;;;;;;;;;;;4.40;89.90;;;;;;4992305;28;19929;-87
2022/01/05 12:59:00;;;;;;;;;;;4.50;90.10;;;;;;4991377;28;19917;-82
2022/01/05 13:01:27;;;;;;;;;;;4.50;89.70;;;;;;4993189;28;19953;-85
2022/01/05 13:03:54;;;;;;;;;;;4.50;89.50;;;;;;4994319;28;20585;-85
2022/01/05 13:06:20;;;;;;;;;;;4.50;89.90;;;;;;4994672;28;19917;-84
2022/01/05 13:08:47;;;;;;;;;;;4.60;89.90;;;;;;4992818;28;19924;-84
2022/01/05 13:11:13;;;;;;;;;;;4.60;89.90;;;;;;4997357;28;19910;-84
2022/01/05 13:13:42;;;;;;;;;;;4.50;89.80;;;;;;4991982;28;19945;-85
2022/01/05 13:16:08;;;;;;;;;;;4.60;90.10;;;;;;4992988;28;19959;-84
2022/01/05 13:18:34;;;;;;;;;;;4.60;90.10;;;;;;4993076;28;20382;-84
2022/01/05 13:20:59;;;;;;;;;;;4.70;90.10;;;;;;4992651;28;19913;-84
2022/01/05 13:23:25;;;;;;;;;;;4.80;90.00;;;;;;4992007;28;19917;-84
2022/01/05 13:25:50;;;;;;;;;;;4.80;89.80;;;;;;4992545;28;20072;-87
2022/01/05 13:28:16;;;;;;;;;;;4.90;89.70;;;;;;4993008;28;19910;-85
2022/01/05 13:30:41;;;;;;;;;;;4.90;89.50;;;;;;4994237;28;20052;-86
2022/01/05 13:33:15;;;;;;;;;;;4.90;89.80;;;;;;4989328;28;19921;-85
2022/01/05 13:35:42;;;;;;;;;;;5.00;90.10;;;;;;4995711;28;19972;-83
2022/01/05 13:38:12;;;;;;;;;;;5.00;89.50;;;;;;4994530;28;19992;-84
2022/01/05 13:40:42;;;;;;;;;;;5.00;89.60;;;;;;4997856;28;19960;-84
2022/01/05 13:43:14;;;;;;;;;;;5.00;89.70;;;;;;4992454;28;19922;-85
2022/01/05 13:45:45;;;;;;;;;;;5.00;89.70;;;;;;4994321;28;19910;-83
2022/01/05 13:48:11;;;;;;;;;;;5.00;89.70;;;;;;4995136;28;20024;-86
2022/01/05 13:50:38;;;;;;;;;;;5.10;89.90;;;;;;4995869;28;19914;-87
2022/01/05 13:53:05;;;;;;;;;;;5.10;90.00;;;;;;4997031;28;19920;-86
2022/01/05 13:55:32;;;;;;;;;;;5.10;90.00;;;;;;4996440;28;19914;-86
2022/01/05 13:58:02;;;;;;;;;;;5.10;89.70;;;;;;4997054;28;19918;-89
2022/01/05 14:00:28;;;;;;;;;;;5.10;89.70;;;;;;4978034;28;19910;-87
2022/01/05 14:02:53;;;;;;;;;;;5.20;89.70;;;;;;4996768;28;20009;-85
2022/01/05 14:05:19;;;;;;;;;;;5.20;89.90;;;;;;4994682;28;19952;-86
2022/01/05 14:07:44;;;;;;;;;;;5.20;89.70;;;;;;4995241;28;19917;-85
2022/01/05 14:10:15;;;;;;;;;;;5.30;89.30;;;;;;5000011;28;19917;-86
2022/01/05 14:12:59;;;;;;;;;;;5.30;89.40;;;;;;5013489;28;19986;-84
2022/01/05 14:15:25;;;;;;;;;;;5.30;89.70;;;;;;5011444;28;19914;-83
2022/01/05 14:18:05;;;;;;;;;;;5.30;89.50;;;;;;5000110;28;19925;-83
2022/01/05 14:20:32;;;;;;;;;;;5.40;89.50;;;;;;4981279;28;19950;-83
2022/01/05 14:22:58;;;;;;;;;;;5.40;89.50;;;;;;4998717;28;19918;-82
2022/01/05 14:25:36;;;;;;;;;;;5.40;89.50;;;;;;4999610;28;19914;-82
2022/01/05 14:28:09;;;;;;;;;;;5.40;89.50;;;;;;4996284;28;20279;-82
2022/01/05 14:30:34;;;;;;;;;;;5.50;89.40;;;;;;4986032;28;19929;-81
2022/01/05 14:33:00;;;;;;;;;;;5.40;89.60;;;;;;4994590;28;20101;-81
2022/01/05 14:35:27;;;;;;;;;;;5.40;89.70;;;;;;4997671;28;19925;-82